Time;durP1;ratioP1;P1;durP2;ratioP2;P2;SDS_P1;SDS_P2;PMS_P1;PMS_P2;Temp;Humidity;BMP_temperature;BMP_pressure;BME280_temperature;BME280_humidity;BME280_pressure;Samples;Min_cycle;Max_cycle;Signal;HPM_P1;HPM_P2
2022/06/10 00:00:53;;;;;;;1.95;0.40;;;;;;;25.71;37.59;96088.94;5134938;27;20038;-26
2022/06/10 00:03:20;;;;;;;0.73;0.30;;;;;;;25.58;37.98;96080.59;5135119;27;20023;-27
2022/06/10 00:05:48;;;;;;;0.77;0.30;;;;;;;25.69;37.59;96083.19;5134837;27;20042;-27
2022/06/10 00:08:17;;;;;;;2.50;0.50;;;;;;;25.67;37.85;96085.75;5134918;27;20042;-26
2022/06/10 00:10:45;;;;;;;0.90;0.30;;;;;;;25.65;37.82;96082.75;5134810;27;20038;-26
2022/06/10 00:13:12;;;;;;;0.28;0.28;;;;;;;25.71;37.50;96084.16;5134649;27;20047;-26
2022/06/10 00:15:38;;;;;;;0.47;0.30;;;;;;;25.69;37.72;96086.69;5134622;27;20483;-26
2022/06/10 00:18:03;;;;;;;1.63;0.38;;;;;;;25.73;37.58;96083.59;5134336;27;20039;-26
2022/06/10 00:20:31;;;;;;;2.05;0.30;;;;;;;25.69;37.68;96081.16;5134577;27;20022;-26
2022/06/10 00:22:57;;;;;;;1.00;0.28;;;;;;;25.76;37.48;96088.06;5130496;27;20425;-26
2022/06/10 00:25:23;;;;;;;1.85;0.40;;;;;;;25.73;37.48;96083.59;5124337;27;20020;-27
2022/06/10 00:27:49;;;;;;;1.58;0.40;;;;;;;25.63;37.94;96086.06;5113766;28;20043;-26
2022/06/10 00:30:17;;;;;;;0.40;0.22;;;;;;;25.54;37.73;96096.81;5113644;28;20031;-26
2022/06/10 00:32:43;;;;;;;0.30;0.30;;;;;;;25.68;37.53;96095.56;5113861;28;20047;-26
2022/06/10 00:35:10;;;;;;;1.10;0.45;;;;;;;25.59;37.58;96098.75;5113742;28;20027;-26
2022/06/10 00:37:36;;;;;;;0.30;0.30;;;;;;;25.48;38.06;96090.63;5125461;27;20038;-26
2022/06/10 00:40:03;;;;;;;0.63;0.38;;;;;;;25.47;37.78;96080.81;5136305;27;20368;-26
2022/06/10 00:42:29;;;;;;;0.65;0.30;;;;;;;25.51;37.94;96084.75;5136017;27;20034;-26
2022/06/10 00:44:54;;;;;;;1.10;0.38;;;;;;;25.58;37.42;96088.94;5136009;27;20023;-27
2022/06/10 00:47:32;;;;;;;0.52;0.40;;;;;;;25.39;37.98;96080.69;5136015;27;20019;-27
2022/06/10 00:50:24;;;;;;;1.10;0.40;;;;;;;25.54;37.46;96092.03;5135932;27;20027;-28
2022/06/10 00:52:58;;;;;;;1.02;0.30;;;;;;;25.50;37.57;96088.81;5124971;27;20070;-26
2022/06/10 00:55:29;;;;;;;0.30;0.30;;;;;;;25.38;37.81;96082.72;5135833;27;20019;-28
2022/06/10 00:58:07;;;;;;;1.40;0.40;;;;;;;25.48;37.61;96085.81;5135913;27;20027;-26
2022/06/10 01:00:34;;;;;;;0.30;0.30;;;;;;;25.53;37.18;96084.97;5117043;27;20421;-26
2022/06/10 01:03:00;;;;;;;1.08;0.40;;;;;;;25.32;37.80;96093.19;5135727;27;20015;-26
2022/06/10 01:05:27;;;;;;;1.75;0.50;;;;;;;25.27;37.62;96085.72;5135868;27;20026;-26
2022/06/10 01:08:06;;;;;;;0.95;0.30;;;;;;;25.46;37.28;96087.66;5135713;27;20027;-26
2022/06/10 01:10:44;;;;;;;0.20;0.20;;;;;;;25.52;37.54;96102.91;5135624;27;20015;-26
2022/06/10 01:13:37;;;;;;;1.27;0.40;;;;;;;25.50;37.10;96104.72;5135304;27;20387;-26
2022/06/10 01:16:09;;;;;;;0.60;0.40;;;;;;;25.55;36.78;96106.66;5135585;27;20034;-26
2022/06/10 01:19:04;;;;;;;1.08;0.30;;;;;;;25.57;36.82;96109.66;5135500;27;20050;-26
2022/06/10 01:22:00;;;;;;;0.70;0.35;;;;;;;25.56;36.68;96111.66;5121804;27;20031;-26
2022/06/10 01:24:52;;;;;;;1.25;0.55;;;;;;;25.37;37.29;96102.69;5135367;27;20053;-26
2022/06/10 01:27:50;;;;;;;2.60;0.50;;;;;;;25.46;36.92;96098.75;5123954;27;20114;-27
2022/06/10 01:30:22;;;;;;;1.80;0.30;;;;;;;25.42;36.89;96099.81;5135146;27;20019;-26
2022/06/10 01:33:22;;;;;;;1.03;0.40;;;;;;;25.42;37.00;96104.63;5135255;27;20034;-26
2022/06/10 01:36:04;;;;;;;0.20;0.20;;;;;;;25.41;36.75;96103.88;5135175;27;20101;-26
2022/06/10 01:38:35;;;;;;;0.20;0.20;;;;;;;25.42;36.62;96094.25;5135044;27;20117;-26
2022/06/10 01:41:26;;;;;;;0.28;0.20;;;;;;;25.42;36.83;96097.03;5135312;27;20027;-26
2022/06/10 01:44:09;;;;;;;0.55;0.30;;;;;;;25.41;36.55;96103.13;5134889;27;20463;-27
2022/06/10 01:46:37;;;;;;;1.08;0.20;;;;;;;25.45;36.57;96113.91;5134984;27;20026;-26
2022/06/10 01:49:17;;;;;;;1.42;0.40;;;;;;;25.41;36.76;96098.31;5134874;27;20030;-27
2022/06/10 01:52:13;;;;;;;0.30;0.20;;;;;;;25.41;36.76;96109.41;5134934;27;20161;-27
2022/06/10 01:54:57;;;;;;;0.75;0.30;;;;;;;25.22;37.10;96111.53;5134776;27;20023;-26
2022/06/10 01:57:34;;;;;;;1.02;0.30;;;;;;;25.26;37.12;96116.75;5134593;27;20060;-26
2022/06/10 02:00:20;;;;;;;1.70;0.30;;;;;;;25.36;36.77;96104.72;5116463;27;20380;-26
2022/06/10 02:02:56;;;;;;;0.65;0.30;;;;;;;25.29;36.68;96107.38;5134816;27;20015;-26
2022/06/10 02:05:24;;;;;;;0.47;0.30;;;;;;;25.36;36.84;96107.47;5134742;27;20027;-26
2022/06/10 02:07:53;;;;;;;0.60;0.30;;;;;;;25.39;36.54;96098.09;5134681;27;20034;-26
2022/06/10 02:10:27;;;;;;;0.90;0.30;;;;;;;25.24;36.90;96089.53;5134133;27;20163;-26
2022/06/10 02:13:02;;;;;;;1.27;0.28;;;;;;;25.26;36.77;96089.75;5134248;27;20051;-26
2022/06/10 02:15:33;;;;;;;3.75;0.40;;;;;;;24.97;37.32;96088.03;5134578;27;20030;-26
2022/06/10 02:18:13;;;;;;;0.20;0.20;;;;;;;25.06;37.19;96101.47;5134483;27;20459;-26
2022/06/10 02:21:05;;;;;;;1.65;0.30;;;;;;;25.21;36.85;96095.44;5134291;27;20026;-26
2022/06/10 02:23:36;;;;;;;3.20;0.57;;;;;;;25.22;36.87;96092.09;5134408;27;20479;-26
2022/06/10 02:26:04;;;;;;;2.67;0.40;;;;;;;25.23;36.49;96087.28;5134403;28;20072;-26
2022/06/10 02:28:36;;;;;;;0.77;0.30;;;;;;;25.03;36.88;96100.50;5134356;28;20030;-26
2022/06/10 02:31:11;;;;;;;2.78;0.30;;;;;;;25.12;36.86;96093.03;5134363;28;20524;-26
2022/06/10 02:33:38;;;;;;;0.40;0.30;;;;;;;25.26;36.59;96086.97;5134058;28;20471;-27
2022/06/10 02:36:17;;;;;;;2.97;0.30;;;;;;;25.21;36.46;96095.44;5134268;28;20417;-26
2022/06/10 02:39:01;;;;;;;1.38;0.30;;;;;;;25.14;36.66;96101.59;5118765;28;20027;-26
2022/06/10 02:42:02;;;;;;;1.30;0.28;;;;;;;25.12;36.58;96099.34;5114446;28;20024;-26
2022/06/10 02:44:37;;;;;;;1.83;0.40;;;;;;;25.02;36.80;96106.59;5123086;28;20035;-26
2022/06/10 02:47:15;;;;;;;2.72;0.32;;;;;;;25.10;36.61;96106.72;5134067;28;20027;-26
2022/06/10 02:49:41;;;;;;;2.75;0.50;;;;;;;24.97;36.84;96110.22;5134254;28;20109;-26
2022/06/10 02:52:11;;;;;;;3.65;0.40;;;;;;;25.05;36.59;96108.31;5134133;28;20107;-26
2022/06/10 02:54:40;;;;;;;2.30;0.40;;;;;;;25.14;36.27;96107.88;5133992;28;20102;-26
2022/06/10 02:57:20;;;;;;;1.25;0.50;;;;;;;25.22;36.31;96105.97;5134267;28;20076;-26
2022/06/10 03:02:42;;;;;;;3.63;0.90;;;;;;;25.09;36.59;96111.53;5134373;28;20087;-26
2022/06/10 03:05:30;;;;;;;1.10;0.30;;;;;;;25.13;36.46;96109.16;5134003;28;20030;-26
2022/06/10 03:08:26;;;;;;;0.50;0.30;;;;;;;25.05;36.58;96097.97;5134013;28;20523;-28
2022/06/10 03:11:08;;;;;;;0.50;0.30;;;;;;;25.23;36.23;96106.72;5134232;28;20023;-26
2022/06/10 03:14:11;;;;;;;1.58;0.40;;;;;;;25.26;36.02;96114.75;5133797;28;20054;-27
2022/06/10 03:16:42;;;;;;;2.72;0.40;;;;;;;25.19;36.27;96107.06;5133998;28;20024;-26
2022/06/10 03:19:15;;;;;;;0.30;0.30;;;;;;;25.23;36.24;96123.38;5133921;28;20035;-26
2022/06/10 03:21:52;;;;;;;1.02;0.35;;;;;;;25.11;36.23;96122.81;5134213;27;20047;-28
2022/06/10 03:24:18;;;;;;;0.63;0.32;;;;;;;25.24;36.09;96122.84;5138005;27;20392;-26
2022/06/10 03:27:05;;;;;;;1.77;0.30;;;;;;;25.15;36.27;96125.28;5137552;27;20019;-26
2022/06/10 03:29:38;;;;;;;1.02;0.30;;;;;;;25.13;36.38;96134.13;5137531;27;20473;-26
2022/06/10 03:32:35;;;;;;;0.30;0.30;;;;;;;24.94;36.48;96127.91;5137508;27;20074;-26
2022/06/10 03:35:29;;;;;;;2.45;0.35;;;;;;;24.97;36.57;96126.88;5115051;27;20031;-26
2022/06/10 03:37:55;;;;;;;0.73;0.30;;;;;;;25.10;36.29;96140.75;5096065;27;20035;-26
2022/06/10 03:40:25;;;;;;;0.43;0.28;;;;;;;25.11;36.41;96131.16;5137371;27;20407;-26
2022/06/10 03:42:53;;;;;;;1.20;0.30;;;;;;;25.17;36.13;96139.38;5137220;27;20110;-26
2022/06/10 03:45:24;;;;;;;1.83;0.32;;;;;;;25.13;35.96;96136.91;5137303;27;20019;-26
2022/06/10 03:47:49;;;;;;;1.05;0.35;;;;;;;25.05;36.22;96152.69;5137585;27;20051;-26
2022/06/10 03:50:21;;;;;;;0.63;0.30;;;;;;;25.11;36.34;96147.03;5137200;27;20047;-26
2022/06/10 03:52:47;;;;;;;2.20;0.40;;;;;;;25.16;36.11;96149.00;5137117;27;20031;-26
2022/06/10 03:55:16;;;;;;;0.30;0.25;;;;;;;24.88;36.62;96149.41;5137188;27;20023;-26
2022/06/10 03:57:43;;;;;;;1.17;0.20;;;;;;;25.08;36.21;96164.78;5137515;27;20023;-26
2022/06/10 04:00:13;;;;;;;1.73;0.38;;;;;;;25.13;36.06;96161.88;5136967;27;20030;-26
2022/06/10 04:02:39;;;;;;;1.10;0.30;;;;;;;25.04;36.27;96165.06;5137019;27;20034;-26
2022/06/10 04:05:05;;;;;;;9.63;1.10;;;;;;;24.90;36.49;96169.06;5136756;27;20058;-26
2022/06/10 04:07:30;;;;;;;1.40;0.30;;;;;;;24.89;36.47;96165.53;5118454;27;20055;-26
2022/06/10 04:09:56;;;;;;;3.78;0.63;;;;;;;25.02;36.01;96167.63;5136713;27;20419;-27
2022/06/10 04:12:22;;;;;;;3.90;0.40;;;;;;;25.12;36.16;96165.94;5136451;27;20054;-26
2022/06/10 04:14:47;;;;;;;1.50;0.40;;;;;;;24.99;36.40;96168.69;5136320;27;20084;-27
2022/06/10 04:17:13;;;;;;;1.15;0.28;;;;;;;25.08;35.98;96176.63;5136865;27;20483;-26
2022/06/10 04:19:39;;;;;;;1.75;0.40;;;;;;;24.74;36.81;96170.03;5136572;27;20540;-26
2022/06/10 04:22:05;;;;;;;0.52;0.30;;;;;;;24.89;36.59;96176.63;5136533;27;20023;-28
2022/06/10 04:24:30;;;;;;;1.00;0.30;;;;;;;24.84;36.59;96176.72;5136612;27;20019;-26
2022/06/10 04:26:56;;;;;;;1.58;0.30;;;;;;;25.02;36.16;96179.47;5136456;27;20062;-26
2022/06/10 04:29:22;;;;;;;2.63;0.40;;;;;;;25.04;36.14;96184.50;5136496;27;20082;-26
2022/06/10 04:31:47;;;;;;;1.80;0.40;;;;;;;24.97;36.31;96179.56;5136499;27;20027;-26
2022/06/10 04:34:14;;;;;;;1.92;0.40;;;;;;;24.89;36.51;96187.72;5135850;27;20073;-26
2022/06/10 04:36:39;;;;;;;4.97;0.40;;;;;;;24.79;36.81;96194.19;5136326;27;20467;-26
2022/06/10 04:39:05;;;;;;;2.20;0.30;;;;;;;24.87;36.39;96190.25;5128390;27;20028;-26
2022/06/10 04:41:31;;;;;;;0.30;0.30;;;;;;;24.92;36.37;96180.38;5113713;28;20020;-26
2022/06/10 04:43:57;;;;;;;0.77;0.30;;;;;;;24.73;36.83;96197.03;5113600;28;20586;-27
2022/06/10 04:46:31;;;;;;;2.83;0.45;;;;;;;24.88;36.49;96191.75;5113480;28;20027;-27
2022/06/10 04:48:57;;;;;;;0.80;0.40;;;;;;;24.87;36.30;96186.75;5113592;28;20027;-26
2022/06/10 04:51:23;;;;;;;1.30;0.30;;;;;;;24.97;36.19;96196.22;5113159;28;20463;-26
2022/06/10 04:53:49;;;;;;;1.42;0.40;;;;;;;24.93;36.10;96195.78;5111253;28;20023;-26
2022/06/10 04:56:14;;;;;;;0.40;0.32;;;;;;;24.42;37.42;96201.25;5113578;28;20031;-26
2022/06/10 04:58:40;;;;;;;0.22;0.20;;;;;;;24.75;36.58;96213.16;5113469;28;20020;-26
2022/06/10 05:01:06;;;;;;;2.10;0.40;;;;;;;24.66;36.91;96215.03;5113331;28;20054;-26
2022/06/10 05:03:31;;;;;;;1.58;0.25;;;;;;;24.82;36.42;96213.31;5113014;28;20035;-26
2022/06/10 05:05:58;;;;;;;0.60;0.35;;;;;;;24.86;36.43;96215.75;5113179;28;20024;-26
2022/06/10 05:08:24;;;;;;;2.10;0.50;;;;;;;24.86;36.20;96215.75;5113058;28;20056;-26
2022/06/10 05:10:50;;;;;;;1.42;0.40;;;;;;;24.80;36.32;96220.66;5112985;28;20027;-26
2022/06/10 05:13:16;;;;;;;2.28;0.32;;;;;;;24.89;36.20;96228.56;5112889;28;20049;-26
2022/06/10 05:15:43;;;;;;;1.30;0.30;;;;;;;24.65;36.69;96227.41;5119232;27;20051;-26
2022/06/10 05:18:11;;;;;;;0.68;0.20;;;;;;;24.86;36.25;96243.50;5133477;27;20113;-27
2022/06/10 05:20:40;;;;;;;0.30;0.22;;;;;;;24.72;36.45;96245.47;5115034;27;20467;-26
2022/06/10 05:23:07;;;;;;;0.40;0.40;;;;;;;24.80;36.36;96254.69;5133577;27;20023;-26
2022/06/10 05:25:33;;;;;;;2.85;0.90;;;;;;;24.37;37.31;96240.88;5133478;27;20038;-26
2022/06/10 05:27:59;;;;;;;5.53;0.40;;;;;;;24.61;36.73;96259.47;5133144;27;20026;-26
2022/06/10 05:30:28;;;;;;;3.17;0.85;;;;;;;24.53;36.91;96255.78;5133188;27;20038;-26
2022/06/10 05:32:54;;;;;;;3.03;0.30;;;;;;;24.64;36.92;96256.41;5133219;27;20375;-26
2022/06/10 05:35:19;;;;;;;1.02;0.30;;;;;;;24.36;37.34;96247.69;5132972;27;20053;-27
2022/06/10 05:37:47;;;;;;;4.72;0.68;;;;;;;24.63;36.80;96265.22;5133159;27;20375;-26
2022/06/10 05:40:14;;;;;;;4.38;0.40;;;;;;;24.66;36.72;96256.63;5132749;27;20545;-27
2022/06/10 05:42:40;;;;;;;4.13;0.40;;;;;;;24.85;36.24;96258.66;5132858;27;20027;-26
2022/06/10 05:45:06;;;;;;;2.55;0.32;;;;;;;24.80;36.34;96287.97;5132968;27;20034;-27
2022/06/10 05:47:34;;;;;;;1.20;0.32;;;;;;;24.85;36.35;96286.41;5133164;27;20027;-26
2022/06/10 05:50:04;;;;;;;1.35;0.50;;;;;;;24.78;36.55;96287.72;5132989;27;20033;-26
2022/06/10 05:52:31;;;;;;;1.08;0.30;;;;;;;24.75;36.60;96299.13;5131310;27;20027;-26
2022/06/10 05:55:01;;;;;;;2.45;0.60;;;;;;;24.75;36.60;96293.56;5132789;27;20080;-26
2022/06/10 05:57:27;;;;;;;2.15;0.45;;;;;;;24.83;36.42;96292.47;5132910;27;20066;-26
2022/06/10 05:59:52;;;;;;;1.25;0.40;;;;;;;24.85;36.47;96297.50;5132832;27;20054;-26
2022/06/10 06:02:20;;;;;;;0.50;0.32;;;;;;;24.81;36.64;96306.09;5132441;27;20027;-26
2022/06/10 06:04:46;;;;;;;2.33;0.40;;;;;;;24.62;36.83;96297.75;5132600;27;20031;-26
2022/06/10 06:07:20;;;;;;;1.45;0.52;;;;;;;24.78;36.81;96300.84;5132532;27;20528;-26
2022/06/10 06:09:46;;;;;;;2.05;0.63;;;;;;;24.68;37.02;96292.16;5132635;27;20034;-26
2022/06/10 06:12:12;;;;;;;2.17;0.30;;;;;;;24.84;36.36;96309.84;5126928;27;20551;-26
2022/06/10 06:14:37;;;;;;;1.08;0.40;;;;;;;24.89;36.54;96304.22;5111872;28;20115;-26
2022/06/10 06:17:04;;;;;;;2.63;0.40;;;;;;;24.77;36.73;96302.13;5093924;28;20081;-26
2022/06/10 06:19:31;;;;;;;1.35;0.38;;;;;;;24.85;36.58;96319.69;5091700;28;20533;-27
2022/06/10 06:21:57;;;;;;;2.92;0.45;;;;;;;24.76;36.87;96306.16;5091656;28;20471;-26
2022/06/10 06:24:23;;;;;;;2.78;0.38;;;;;;;24.76;36.80;96317.25;5090309;28;20035;-26
2022/06/10 06:26:49;;;;;;;1.70;0.50;;;;;;;24.79;36.66;96310.66;5091368;28;20035;-26
2022/06/10 06:29:14;;;;;;;1.42;0.50;;;;;;;24.85;36.53;96303.03;5091513;28;20473;-26
2022/06/10 06:31:40;;;;;;;0.70;0.32;;;;;;;24.76;36.84;96308.94;5091294;28;20032;-26
2022/06/10 06:34:06;;;;;;;0.25;0.22;;;;;;;24.61;37.06;96326.75;5091078;28;20055;-26
2022/06/10 06:36:39;;;;;;;1.90;0.50;;;;;;;24.53;37.62;96325.09;5091570;28;20043;-26
2022/06/10 06:39:06;;;;;;;0.70;0.65;;;;;;;24.48;37.35;96332.19;5091253;28;20028;-26
2022/06/10 06:41:32;;;;;;;2.83;0.30;;;;;;;24.76;36.70;96339.44;5091588;28;20417;-27
2022/06/10 06:43:57;;;;;;;1.02;0.30;;;;;;;24.77;36.81;96343.72;5091397;28;20157;-26
2022/06/10 06:46:23;;;;;;;0.82;0.40;;;;;;;24.55;37.13;96326.09;5091192;28;20080;-26
2022/06/10 06:48:49;;;;;;;3.78;0.30;;;;;;;24.79;36.33;96330.09;5091240;28;20023;-26
2022/06/10 06:51:15;;;;;;;0.77;0.30;;;;;;;24.73;36.86;96329.41;5090985;28;20032;-26
2022/06/10 06:53:41;;;;;;;1.33;0.30;;;;;;;24.66;36.73;96331.50;5089731;28;20027;-26
2022/06/10 06:56:11;;;;;;;1.40;0.30;;;;;;;24.75;36.45;96329.63;5109759;28;20024;-26
2022/06/10 06:58:37;;;;;;;0.70;0.63;;;;;;;24.44;37.12;96345.63;5114905;28;20468;-26
2022/06/10 07:01:03;;;;;;;6.13;1.45;;;;;;;24.66;36.76;96341.84;5115710;28;20039;-26
2022/06/10 07:03:28;;;;;;;2.60;0.95;;;;;;;24.59;36.76;96343.19;5115457;28;20452;-26
2022/06/10 07:05:54;;;;;;;1.55;0.30;;;;;;;24.72;36.56;96341.78;5115498;28;20023;-26
2022/06/10 07:08:19;;;;;;;2.22;0.30;;;;;;;23.88;37.45;96343.34;5115460;28;20027;-29
2022/06/10 07:10:45;;;;;;;1.50;0.60;;;;;;;23.44;38.77;96338.16;5114480;28;20023;-27
2022/06/10 07:13:12;;;;;;;2.95;0.50;;;;;;;24.09;37.79;96348.47;5129211;27;20036;-28
2022/06/10 07:15:39;;;;;;;1.15;0.57;;;;;;;24.37;37.21;96342.66;5134044;27;20021;-27
2022/06/10 07:18:05;;;;;;;1.35;0.40;;;;;;;24.53;36.88;96348.03;5135765;27;20034;-27
2022/06/10 07:20:33;;;;;;;3.92;0.50;;;;;;;24.20;37.64;96351.13;5135538;27;20418;-27
2022/06/10 07:22:59;;;;;;;3.55;0.70;;;;;;;24.46;37.06;96356.94;5135339;27;20038;-27
2022/06/10 07:25:26;;;;;;;1.55;0.32;;;;;;;24.39;37.12;96356.75;5135507;27;20467;-27
2022/06/10 07:27:55;;;;;;;1.30;0.30;;;;;;;24.24;37.22;96357.16;5135436;27;20098;-27
2022/06/10 07:30:24;;;;;;;0.73;0.32;;;;;;;24.40;36.88;96359.00;5135671;27;20222;-27
2022/06/10 07:32:50;;;;;;;4.20;0.50;;;;;;;24.19;37.00;96360.72;5135605;27;20080;-27
2022/06/10 07:35:18;;;;;;;0.93;0.30;;;;;;;24.32;37.20;96352.56;5135479;27;20383;-27
2022/06/10 07:37:45;;;;;;;1.00;0.40;;;;;;;23.94;38.03;96357.16;5135559;27;20062;-28
2022/06/10 07:41:56;;;;;;;4.28;0.50;;;;;;;24.13;37.59;96371.09;5135248;27;20027;-26
2022/06/10 07:43:00;;;;;;;0.68;0.50;;;;;;;24.17;36.99;96368.78;5135392;27;20470;-27
2022/06/10 07:45:26;;;;;;;3.53;0.73;;;;;;;24.27;37.09;96370.72;5135215;27;20023;-27
2022/06/10 07:47:51;;;;;;;1.05;0.40;;;;;;;24.34;37.16;96372.19;5135263;27;20038;-28
2022/06/10 07:50:17;;;;;;;3.45;0.50;;;;;;;24.37;36.77;96381.47;5135175;27;20027;-26
2022/06/10 07:52:43;;;;;;;3.80;0.40;;;;;;;24.41;36.55;96368.84;5133656;27;20375;-26
2022/06/10 07:55:08;;;;;;;4.60;0.50;;;;;;;24.33;36.89;96365.16;5135019;27;20079;-28
2022/06/10 07:57:34;;;;;;;3.00;0.47;;;;;;;24.45;36.61;96377.63;5135219;27;20031;-27
2022/06/10 07:59:59;;;;;;;3.50;0.50;;;;;;;24.50;36.49;96373.25;5135043;27;20035;-27
2022/06/10 08:02:24;;;;;;;0.77;0.55;;;;;;;24.53;36.34;96383.31;5134269;27;20027;-27
2022/06/10 08:04:50;;;;;;;1.40;0.40;;;;;;;24.23;36.62;96383.38;5135085;27;20019;-26
2022/06/10 08:07:15;;;;;;;2.25;0.40;;;;;;;24.46;36.50;96401.31;5134610;27;20053;-27
2022/06/10 08:09:41;;;;;;;1.23;0.50;;;;;;;24.07;36.89;96401.63;5133508;27;20459;-27
2022/06/10 08:12:06;;;;;;;2.75;0.60;;;;;;;24.13;37.06;96396.78;5135533;27;20066;-28
2022/06/10 08:14:32;;;;;;;1.85;0.30;;;;;;;24.05;37.24;96412.47;5134203;27;20026;-27
2022/06/10 08:16:59;;;;;;;0.82;0.30;;;;;;;24.22;36.72;96404.03;5122621;27;20030;-27
2022/06/10 08:19:25;;;;;;;3.08;0.40;;;;;;;24.22;36.93;96407.56;5134655;27;20435;-28
2022/06/10 08:24:34;;;;;;;2.03;0.40;;;;;;;24.16;37.08;96417.16;5113948;28;20053;-27
2022/06/10 08:27:00;;;;;;;1.40;0.50;;;;;;;24.48;36.44;96420.19;5113818;28;20106;-28
2022/06/10 08:29:26;;;;;;;1.75;0.60;;;;;;;24.49;36.42;96427.22;5113924;28;20019;-27
2022/06/10 08:31:52;;;;;;;0.75;0.43;;;;;;;23.73;37.51;96426.06;5113489;28;20561;-26
2022/06/10 08:34:17;;;;;;;2.92;0.47;;;;;;;24.05;37.35;96440.19;5126611;27;20039;-27
2022/06/10 08:36:43;;;;;;;1.38;0.50;;;;;;;24.13;37.21;96440.34;5134061;27;20031;-26
2022/06/10 08:39:09;;;;;;;4.22;0.40;;;;;;;24.31;36.73;96425.88;5134031;27;20038;-27
2022/06/10 08:41:46;;;;;;;0.50;0.40;;;;;;;24.24;37.23;96429.22;5134491;27;20023;-27
2022/06/10 08:44:14;;;;;;;2.83;0.60;;;;;;;24.02;37.59;96434.91;5134228;27;20027;-27
2022/06/10 08:46:57;;;;;;;2.00;0.32;;;;;;;23.95;37.54;96441.78;5134181;27;20034;-27
2022/06/10 08:49:41;;;;;;;0.40;0.40;;;;;;;24.26;37.10;96452.38;5133780;27;20019;-27
2022/06/10 08:52:15;;;;;;;0.80;0.35;;;;;;;24.13;37.17;96456.97;5133810;27;20023;-27
2022/06/10 08:55:10;;;;;;;0.60;0.40;;;;;;;24.30;36.69;96455.63;5132040;27;20074;-27
2022/06/10 08:57:41;;;;;;;2.72;0.47;;;;;;;23.94;37.39;96463.19;5116795;27;20031;-27
2022/06/10 09:00:24;;;;;;;3.33;0.50;;;;;;;23.89;37.22;96465.97;5115181;28;20028;-28
2022/06/10 09:03:03;;;;;;;1.17;0.40;;;;;;;23.77;37.92;96476.38;5115402;28;20531;-27
2022/06/10 09:05:34;;;;;;;1.88;0.77;;;;;;;23.85;37.31;96465.53;5115263;28;20106;-27
2022/06/10 09:08:02;;;;;;;0.70;0.40;;;;;;;24.04;37.29;96460.09;5115149;28;20024;-29
2022/06/10 09:10:38;;;;;;;1.13;0.68;;;;;;;23.99;37.24;96458.84;5115085;28;20027;-27
2022/06/10 09:13:25;;;;;;;2.50;0.47;;;;;;;23.86;37.55;96480.88;5115184;28;20047;-28
2022/06/10 09:16:15;;;;;;;1.85;0.65;;;;;;;24.49;36.26;96477.09;5115091;28;20408;-27
2022/06/10 09:18:49;;;;;;;1.45;0.40;;;;;;;24.51;36.16;96477.34;5114803;28;20028;-27
2022/06/10 09:21:25;;;;;;;1.23;0.65;;;;;;;23.98;36.88;96485.78;5114525;28;20027;-27
2022/06/10 09:23:55;;;;;;;0.88;0.40;;;;;;;24.15;37.11;96473.84;5114878;28;20016;-28
2022/06/10 09:26:41;;;;;;;1.48;0.50;;;;;;;24.10;37.10;96469.13;5114989;28;20483;-27
2022/06/10 09:29:08;;;;;;;2.10;0.50;;;;;;;24.08;37.35;96472.41;5114752;28;20047;-28
2022/06/10 09:32:07;;;;;;;0.98;0.55;;;;;;;24.18;37.10;96476.34;5114802;28;20120;-27
2022/06/10 09:34:44;;;;;;;2.78;0.50;;;;;;;24.01;37.28;96467.41;5114517;28;20024;-27
2022/06/10 09:37:51;;;;;;;2.35;0.50;;;;;;;24.10;37.42;96475.41;5114505;28;20044;-27
2022/06/10 09:40:37;;;;;;;1.40;0.60;;;;;;;24.25;37.10;96469.50;5079646;28;20062;-27
2022/06/10 09:43:34;;;;;;;3.08;0.60;;;;;;;24.54;36.62;96465.97;5114631;28;20072;-27
2022/06/10 09:46:11;;;;;;;2.95;0.60;;;;;;;24.36;37.02;96477.00;5114543;28;20020;-28
2022/06/10 09:48:46;;;;;;;1.35;0.43;;;;;;;24.35;36.97;96484.56;5114376;28;20030;-27
2022/06/10 09:51:39;;;;;;;5.43;0.55;;;;;;;24.37;36.91;96482.00;5114501;28;20026;-27
2022/06/10 09:54:31;;;;;;;2.53;0.55;;;;;;;24.55;36.53;96481.34;5096089;28;20063;-28
2022/06/10 09:57:11;;;;;;;2.30;0.52;;;;;;;24.41;36.92;96492.81;5103068;28;20037;-26
2022/06/10 09:59:54;;;;;;;0.55;0.45;;;;;;;24.08;37.65;96493.81;5114405;28;20028;-28
2022/06/10 10:02:32;;;;;;;3.63;0.63;;;;;;;24.17;37.38;96496.25;5114075;28;20107;-27
2022/06/10 10:05:28;;;;;;;0.40;0.38;;;;;;;24.57;36.85;96481.59;5114259;28;20072;-27
2022/06/10 10:08:10;;;;;;;3.90;0.60;;;;;;;24.59;36.77;96486.63;5123777;27;20027;-27
2022/06/10 10:10:46;;;;;;;0.93;0.40;;;;;;;24.27;37.47;96481.59;5132747;27;20035;-27
2022/06/10 10:13:30;;;;;;;5.38;0.60;;;;;;;24.41;37.37;96493.56;5132557;27;20483;-28
2022/06/10 10:16:13;;;;;;;2.35;0.60;;;;;;;24.22;37.47;96482.41;5132471;27;20023;-27
2022/06/10 10:18:39;;;;;;;1.52;0.57;;;;;;;24.14;37.83;96486.94;5129191;27;20054;-27
2022/06/10 10:21:18;;;;;;;3.70;0.60;;;;;;;24.61;36.95;96484.81;5117612;27;20051;-27
2022/06/10 10:23:55;;;;;;;1.23;0.60;;;;;;;24.60;37.26;96497.16;5111845;28;20031;-27
2022/06/10 10:26:27;;;;;;;2.88;0.63;;;;;;;24.19;37.67;96493.72;5111852;28;20020;-27
2022/06/10 10:29:05;;;;;;;1.60;0.60;;;;;;;24.08;37.82;96474.41;5111756;28;20027;-27
2022/06/10 10:31:42;;;;;;;1.73;0.45;;;;;;;24.46;37.35;96483.72;5092739;28;20420;-27
2022/06/10 10:34:18;;;;;;;1.75;0.47;;;;;;;24.48;37.33;96503.34;5111809;28;20019;-29
2022/06/10 10:36:44;;;;;;;2.33;0.50;;;;;;;24.18;38.07;96508.84;5111637;28;20035;-26
2022/06/10 10:39:35;;;;;;;1.70;0.70;;;;;;;24.19;38.00;96521.44;5112003;28;20032;-28
2022/06/10 10:42:27;;;;;;;3.85;1.00;;;;;;;24.35;37.79;96515.06;5111654;28;20024;-26
2022/06/10 10:45:40;;;;;;;2.35;0.70;;;;;;;24.08;38.24;96535.38;5111400;28;20383;-28
2022/06/10 10:48:18;;;;;;;1.17;0.50;;;;;;;24.30;37.89;96530.44;5028770;28;20044;-27
2022/06/10 10:50:53;;;;;;;1.08;0.50;;;;;;;24.50;37.65;96528.53;5028819;28;20270;-27
2022/06/10 10:53:30;;;;;;;1.00;0.43;;;;;;;24.41;37.84;96532.38;5028879;28;20517;-27
2022/06/10 10:55:58;;;;;;;1.13;0.50;;;;;;;24.46;38.05;96526.03;5028315;28;20134;-27
2022/06/10 10:58:27;;;;;;;3.22;0.68;;;;;;;24.34;38.26;96532.94;5028742;28;20042;-27
2022/06/10 11:00:59;;;;;;;1.65;0.70;;;;;;;24.21;38.56;96541.06;5028904;28;20057;-27
2022/06/10 11:03:25;;;;;;;;;;;;;;;24.13;39.05;96535.31;5027253;28;20025;-26
2022/06/10 11:05:52;;;;;;;1.58;0.60;;;;;;;24.20;38.72;96534.03;5028823;28;20327;-27
2022/06/10 11:08:17;;;;;;;2.58;0.60;;;;;;;24.44;38.25;96525.81;5028354;28;20036;-27
2022/06/10 11:11:22;;;;;;;2.15;0.70;;;;;;;24.27;38.52;96537.00;5028446;28;20116;-27
2022/06/10 11:13:51;;;;;;;3.15;0.80;;;;;;;23.93;39.44;96538.47;5011058;28;20049;-27
2022/06/10 11:16:31;;;;;;;5.65;1.08;;;;;;;24.33;38.63;96528.66;5028186;28;20045;-27
2022/06/10 11:19:15;;;;;;;0.80;0.40;;;;;;;24.39;38.39;96534.91;5073051;28;20050;-27
2022/06/10 11:21:48;;;;;;;2.35;0.60;;;;;;;24.28;38.76;96535.00;5111431;28;20114;-27
2022/06/10 11:24:22;;;;;;;;;;;;;;;24.51;38.21;96528.00;5111744;28;20054;-27
2022/06/10 11:26:57;;;;;;;3.25;0.63;;;;;;;24.48;38.54;96526.25;5111479;28;19907;-27
2022/06/10 11:29:24;;;;;;;2.40;1.02;;;;;;;24.11;39.56;96543.38;5111199;28;20384;-28
2022/06/10 11:31:56;;;;;;;2.83;1.13;;;;;;;24.14;39.51;96547.91;5092615;28;20035;-28
2022/06/10 11:34:30;;;;;;;1.63;0.70;;;;;;;24.32;39.05;96541.03;5111242;28;20027;-27
2022/06/10 11:36:57;;;;;;;3.15;1.15;;;;;;;23.98;39.71;96549.50;5111330;28;20019;-27
2022/06/10 11:39:29;;;;;;;3.00;1.00;;;;;;;24.34;39.11;96538.50;5111239;28;20059;-27
2022/06/10 11:41:57;;;;;;;2.90;0.80;;;;;;;24.56;38.70;96532.75;5111188;28;20024;-27
2022/06/10 11:44:25;;;;;;;3.25;1.50;;;;;;;24.38;39.11;96524.34;5113685;28;20251;-27
2022/06/10 11:47:00;;;;;;;2.00;0.70;;;;;;;24.47;38.87;96532.34;5114604;28;20023;-26
2022/06/10 11:49:46;;;;;;;3.33;0.68;;;;;;;24.36;39.45;96541.47;5114932;28;20024;-27
2022/06/10 11:52:33;;;;;;;2.97;0.50;;;;;;;24.48;38.96;96551.22;5114677;28;20399;-27
2022/06/10 11:55:10;;;;;;;1.77;0.50;;;;;;;24.75;38.14;96540.41;5114366;28;20711;-28
2022/06/10 12:00:48;;;;;;;5.68;0.90;;;;;;;24.59;38.70;96526.19;5131922;27;20034;-27
2022/06/10 12:03:27;;;;;;;2.35;0.70;;;;;;;24.78;38.17;96533.81;5137102;27;20603;-29
2022/06/10 12:06:14;;;;;;;6.07;1.00;;;;;;;24.86;38.28;96531.97;5137037;27;20463;-27
2022/06/10 12:09:00;;;;;;;4.60;1.10;;;;;;;24.62;38.70;96546.56;5137196;27;20029;-27